Time;durP1;ratioP1;P1;durP2;ratioP2;P2;SDS_P1;SDS_P2;PMS_P1;PMS_P2;Temp;Humidity;BMP_temperature;BMP_pressure;BME280_temperature;BME280_humidity;BME280_pressure;Samples;Min_cycle;Max_cycle;Signal;HPM_P1;HPM_P2
2021/08/22 00:00:51;;;;;;;9.23;5.38;;;487.10;2355.20;;;;;;5055143;28;20087;-82
2021/08/22 00:03:17;;;;;;;14.20;5.32;;;487.20;2355.20;;;;;;5054879;28;20044;-82
2021/08/22 00:05:43;;;;;;;8.60;4.93;;;512.10;2355.20;;;;;;5055050;28;20119;-83
2021/08/22 00:08:11;;;;;;;8.98;5.22;;;487.10;2355.20;;;;;;5054960;28;20032;-82
2021/08/22 00:10:37;;;;;;;9.35;4.82;;;487.10;2380.80;;;;;;5054836;28;20094;-82
2021/08/22 00:13:03;;;;;;;9.02;5.18;;;487.00;2380.80;;;;;;5055003;28;20419;-82
2021/08/22 00:15:29;;;;;;;7.80;4.63;;;487.00;2380.80;;;;;;5055103;28;20047;-82
2021/08/22 00:17:54;;;;;;;9.20;5.15;;;487.10;2380.80;;;;;;5054608;28;20455;-83
2021/08/22 00:20:21;;;;;;;9.43;4.88;;;486.80;2380.80;;;;;;5054822;28;20116;-83
2021/08/22 00:22:48;;;;;;;8.82;5.00;;;487.00;2380.80;;;;;;5054520;28;20041;-82
2021/08/22 00:25:14;;;;;;;8.57;4.82;;;487.00;2380.80;;;;;;5054859;28;20028;-82
2021/08/22 00:27:40;;;;;;;10.77;5.57;;;486.90;2380.80;;;;;;5054845;28;20031;-82
2021/08/22 00:30:06;;;;;;;8.88;4.80;;;486.90;2380.80;;;;;;5054631;28;20029;-82
2021/08/22 00:32:32;;;;;;;9.02;5.25;;;486.60;2380.80;;;;;;5054715;28;20029;-82
2021/08/22 00:34:57;;;;;;;7.57;4.57;;;486.50;2380.80;;;;;;5055007;28;20372;-82
2021/08/22 00:37:28;;;;;;;7.97;4.63;;;486.60;2380.80;;;;;;5054514;28;20029;-82
2021/08/22 00:39:54;;;;;;;9.07;4.45;;;486.70;2380.80;;;;;;5055010;28;20024;-82
2021/08/22 00:42:22;;;;;;;8.27;4.50;;;486.70;2380.80;;;;;;5054164;28;20061;-83
2021/08/22 00:44:48;;;;;;;8.65;4.47;;;486.70;2380.80;;;;;;5054211;28;20032;-83
2021/08/22 00:47:13;;;;;;;9.82;5.13;;;486.70;2380.80;;;;;;5054631;28;20025;-82
2021/08/22 00:49:39;;;;;;;8.88;5.28;;;486.50;2380.80;;;;;;5057840;28;20115;-82
2021/08/22 00:52:06;;;;;;;9.68;4.78;;;461.50;2380.80;;;;;;5061163;28;20357;-82
2021/08/22 00:54:34;;;;;;;9.93;5.10;;;461.60;2380.80;;;;;;5062331;28;20049;-82
2021/08/22 00:57:00;;;;;;;6.50;4.80;;;461.60;2380.80;;;;;;5055059;28;20036;-82
2021/08/22 00:59:26;;;;;;;9.27;4.88;;;461.60;2380.80;;;;;;5053842;28;20025;-83
2021/08/22 01:01:54;;;;;;;8.50;5.10;;;461.50;2380.80;;;;;;5054215;28;20082;-83
2021/08/22 01:04:27;;;;;;;15.90;6.22;;;461.50;2380.80;;;;;;5053116;28;20033;-83
2021/08/22 01:07:18;;;;;;;8.30;4.43;;;461.40;2380.80;;;;;;5053765;28;20053;-83
2021/08/22 01:09:47;;;;;;;9.00;5.40;;;461.50;2380.80;;;;;;5055535;28;20029;-82
2021/08/22 01:12:37;;;;;;;7.05;4.88;;;461.40;2380.80;;;;;;5053541;28;20029;-83
2021/08/22 01:15:06;;;;;;;7.05;4.18;;;461.40;2380.80;;;;;;5053299;28;20029;-84
2021/08/22 01:17:40;;;;;;;7.13;5.03;;;461.60;2380.80;;;;;;5053833;28;20063;-84
2021/08/22 01:20:15;;;;;;;8.70;4.97;;;461.40;2380.80;;;;;;5053634;28;20407;-84
2021/08/22 01:22:43;;;;;;;7.97;4.97;;;461.40;2380.80;;;;;;5053888;28;20384;-83
2021/08/22 01:25:10;;;;;;;8.60;5.00;;;461.50;2380.80;;;;;;5053475;28;20021;-81
2021/08/22 01:27:41;;;;;;;6.63;4.57;;;461.70;2380.80;;;;;;5053378;28;20487;-83
2021/08/22 01:30:12;;;;;;;6.63;4.45;;;461.40;2380.80;;;;;;5053912;28;20029;-83
2021/08/22 01:32:39;;;;;;;8.85;4.95;;;461.40;2380.80;;;;;;5053308;28;20163;-83
2021/08/22 01:35:06;;;;;;;6.72;5.03;;;461.30;2380.80;;;;;;5054703;28;20033;-84
2021/08/22 01:37:35;;;;;;;10.88;4.90;;;461.30;2380.80;;;;;;5053516;28;20384;-84
2021/08/22 01:40:02;;;;;;;10.00;5.07;;;461.20;2380.80;;;;;;5053325;28;20527;-83
2021/08/22 01:42:30;;;;;;;6.70;4.85;;;461.40;2380.80;;;;;;5053412;28;20424;-83
2021/08/22 01:44:56;;;;;;;8.27;4.93;;;461.30;2380.80;;;;;;5053270;28;20032;-83
2021/08/22 01:47:23;;;;;;;9.27;4.82;;;461.50;2380.80;;;;;;5053109;28;20020;-84
2021/08/22 01:49:49;;;;;;;9.98;5.38;;;461.60;2380.80;;;;;;5053599;28;20485;-82
2021/08/22 01:52:16;;;;;;;8.98;4.75;;;461.30;2380.80;;;;;;5053052;28;20036;-80
2021/08/22 01:54:43;;;;;;;10.75;5.22;;;461.30;2380.80;;;;;;5052558;28;20021;-80
2021/08/22 01:57:09;;;;;;;8.02;4.55;;;461.40;2380.80;;;;;;5052885;28;20116;-80
2021/08/22 01:59:36;;;;;;;6.15;4.35;;;461.30;2380.80;;;;;;5053000;28;20120;-81
2021/08/22 02:02:03;;;;;;;6.38;5.07;;;461.40;2380.80;;;;;;5053849;28;20106;-81
2021/08/22 02:04:33;;;;;;;6.40;3.88;;;461.20;2380.80;;;;;;5052828;28;20400;-80
2021/08/22 02:07:10;;;;;;;5.82;4.40;;;461.30;2380.80;;;;;;5054084;28;20025;-81
2021/08/22 02:10:00;;;;;;;9.43;5.50;;;461.40;2380.80;;;;;;5052505;28;20040;-81
2021/08/22 02:12:26;;;;;;;8.93;4.50;;;461.40;2380.80;;;;;;5053794;28;20460;-81
2021/08/22 02:15:15;;;;;;;9.68;4.90;;;461.30;2380.80;;;;;;5052285;28;20036;-82
2021/08/22 02:18:02;;;;;;;8.40;4.93;;;461.10;2380.80;;;;;;5052690;28;20428;-80
2021/08/22 02:20:28;;;;;;;6.38;4.88;;;461.00;2380.80;;;;;;5052634;28;20040;-83
2021/08/22 02:22:55;;;;;;;5.75;4.18;;;460.90;2380.80;;;;;;5052225;28;20025;-81
2021/08/22 02:25:21;;;;;;;7.38;4.47;;;460.80;2380.80;;;;;;5052539;28;20021;-82
2021/08/22 02:27:47;;;;;;;10.05;5.53;;;460.90;2380.80;;;;;;5052771;28;20104;-81
2021/08/22 02:30:14;;;;;;;9.23;4.82;;;436.00;2355.20;;;;;;5052182;28;20025;-81
2021/08/22 02:32:40;;;;;;;7.28;4.38;;;435.80;2355.20;;;;;;5052465;28;20033;-83
2021/08/22 02:35:07;;;;;;;8.48;4.80;;;436.00;2355.20;;;;;;5052557;28;20055;-82
2021/08/22 02:37:33;;;;;;;7.07;4.60;;;436.10;2355.20;;;;;;5053232;28;20471;-81
2021/08/22 02:39:59;;;;;;;8.35;4.50;;;436.10;2355.20;;;;;;5052483;28;20039;-80
2021/08/22 02:42:25;;;;;;;6.72;4.72;;;460.80;2380.80;;;;;;5053667;28;20049;-81
2021/08/22 02:44:51;;;;;;;6.88;4.80;;;460.90;2380.80;;;;;;5052083;28;20040;-81
2021/08/22 02:47:17;;;;;;;5.90;4.50;;;460.80;2380.80;;;;;;5052181;28;20483;-82
2021/08/22 02:49:43;;;;;;;9.43;4.38;;;460.80;2380.80;;;;;;5052102;28;20022;-83
2021/08/22 02:52:09;;;;;;;9.85;5.78;;;460.80;2380.80;;;;;;5052288;28;20025;-82
2021/08/22 02:54:35;;;;;;;7.35;4.90;;;435.90;2355.20;;;;;;5052272;28;20025;-81
2021/08/22 02:57:01;;;;;;;9.05;5.53;;;436.00;2355.20;;;;;;5051898;28;20025;-81
2021/08/22 02:59:27;;;;;;;6.68;4.47;;;436.00;2355.20;;;;;;5053781;28;20369;-82
2021/08/22 03:01:53;;;;;;;11.43;5.28;;;436.00;2355.20;;;;;;5052127;28;20151;-81
2021/08/22 03:04:19;;;;;;;9.00;5.25;;;436.00;2355.20;;;;;;5051789;28;20087;-82
2021/08/22 03:06:45;;;;;;;7.60;5.00;;;436.00;2355.20;;;;;;5052090;28;20021;-82
2021/08/22 03:09:11;;;;;;;10.13;5.30;;;436.10;2355.20;;;;;;5052103;28;20033;-82
2021/08/22 03:11:37;;;;;;;11.90;5.05;;;436.10;2355.20;;;;;;5051769;28;20028;-85
2021/08/22 03:14:03;;;;;;;7.72;4.80;;;436.00;2355.20;;;;;;5052071;28;20029;-82
2021/08/22 03:16:29;;;;;;;8.32;4.82;;;435.90;2355.20;;;;;;5052039;28;20029;-84
2021/08/22 03:18:55;;;;;;;8.30;5.10;;;435.90;2355.20;;;;;;5051641;28;20027;-82
2021/08/22 03:21:21;;;;;;;6.65;4.55;;;436.00;2355.20;;;;;;5053325;28;20052;-81
2021/08/22 03:23:47;;;;;;;7.55;4.88;;;435.90;2355.20;;;;;;5051946;28;20025;-82
2021/08/22 03:26:13;;;;;;;7.65;5.35;;;435.90;2355.20;;;;;;5051611;28;20377;-83
2021/08/22 03:28:38;;;;;;;6.38;4.78;;;436.10;2355.20;;;;;;5055703;28;20048;-84
2021/08/22 03:31:05;;;;;;;7.43;5.07;;;436.10;2355.20;;;;;;5055699;28;20037;-83
2021/08/22 03:33:31;;;;;;;7.60;4.75;;;436.10;2355.20;;;;;;5055402;28;20025;-83
2021/08/22 03:35:57;;;;;;;10.63;4.50;;;460.80;2380.80;;;;;;5055894;28;20032;-83
2021/08/22 03:38:23;;;;;;;7.65;4.43;;;436.10;2355.20;;;;;;5055667;28;20376;-83
2021/08/22 03:40:49;;;;;;;7.88;4.10;;;460.80;2380.80;;;;;;5054843;28;20053;-84
2021/08/22 03:43:15;;;;;;;9.80;5.25;;;460.80;2380.80;;;;;;5055424;28;20083;-85
2021/08/22 03:45:40;;;;;;;8.60;4.70;;;436.10;2355.20;;;;;;5055263;28;20471;-83
2021/08/22 03:48:06;;;;;;;6.70;4.10;;;436.10;2355.20;;;;;;5055608;28;20087;-84
2021/08/22 03:50:32;;;;;;;8.10;4.75;;;460.80;2380.80;;;;;;5056604;28;20028;-83
2021/08/22 03:52:58;;;;;;;7.55;5.10;;;460.90;2380.80;;;;;;5054742;28;20029;-84
2021/08/22 03:55:24;;;;;;;7.13;4.70;;;460.90;2380.80;;;;;;5055226;28;20090;-84
2021/08/22 03:57:50;;;;;;;10.48;4.90;;;460.90;2380.80;;;;;;5055311;28;20036;-82
2021/08/22 04:00:16;;;;;;;7.10;4.93;;;460.90;2380.80;;;;;;5056341;28;20029;-81
2021/08/22 04:02:42;;;;;;;6.50;4.22;;;461.00;2380.80;;;;;;5055071;28;20063;-83
2021/08/22 04:05:10;;;;;;;7.57;5.57;;;461.10;2380.80;;;;;;5056595;28;20060;-81
2021/08/22 04:07:37;;;;;;;11.18;5.65;;;460.90;2380.80;;;;;;5056158;28;20025;-80
2021/08/22 04:10:07;;;;;;;12.73;7.45;;;461.00;2380.80;;;;;;5055149;28;20095;-80
2021/08/22 04:12:33;;;;;;;13.43;7.07;;;460.90;2380.80;;;;;;5055990;28;20116;-80
2021/08/22 04:14:59;;;;;;;10.02;6.40;;;461.00;2380.80;;;;;;5054621;28;20047;-81
2021/08/22 04:17:25;;;;;;;8.23;5.07;;;461.10;2380.80;;;;;;5054871;28;20468;-80
2021/08/22 04:19:50;;;;;;;10.95;5.82;;;461.00;2380.80;;;;;;5054900;28;20025;-81
2021/08/22 04:22:16;;;;;;;8.32;5.30;;;460.90;2380.80;;;;;;5054418;28;20065;-81
2021/08/22 04:24:42;;;;;;;8.75;4.68;;;436.00;2355.20;;;;;;5054626;28;20025;-79
2021/08/22 04:27:08;;;;;;;6.30;4.50;;;460.80;2380.80;;;;;;5056128;28;20060;-81
2021/08/22 04:29:38;;;;;;;9.10;5.72;;;460.90;2380.80;;;;;;5054384;28;20025;-82
2021/08/22 04:32:05;;;;;;;8.13;5.25;;;461.00;2380.80;;;;;;5054300;28;20037;-81
2021/08/22 04:34:30;;;;;;;7.60;5.25;;;461.10;2380.80;;;;;;5054535;28;20032;-81
2021/08/22 04:36:56;;;;;;;8.57;5.57;;;461.10;2380.80;;;;;;5055549;28;20025;-84
2021/08/22 04:39:22;;;;;;;9.13;5.40;;;461.00;2380.80;;;;;;5054501;28;20032;-80
2021/08/22 04:41:48;;;;;;;9.77;4.82;;;461.10;2380.80;;;;;;5053961;28;20499;-81
2021/08/22 04:44:15;;;;;;;9.80;5.55;;;461.10;2380.80;;;;;;5054453;28;20033;-82
2021/08/22 04:46:42;;;;;;;8.40;5.32;;;461.20;2380.80;;;;;;5054466;28;20021;-81
2021/08/22 04:49:08;;;;;;;9.68;5.03;;;461.20;2380.80;;;;;;5054092;28;20029;-82
2021/08/22 04:51:34;;;;;;;8.07;4.75;;;461.10;2380.80;;;;;;5054487;28;20075;-81
2021/08/22 04:54:00;;;;;;;11.45;6.70;;;460.80;2380.80;;;;;;5054305;28;20029;-80
2021/08/22 04:56:26;;;;;;;15.32;7.13;;;436.10;2355.20;;;;;;5054082;28;20051;-81
2021/08/22 04:58:52;;;;;;;11.35;5.50;;;436.00;2355.20;;;;;;5054083;28;20057;-80
2021/08/22 05:01:17;;;;;;;10.73;6.50;;;435.90;2355.20;;;;;;5055522;28;20029;-81
2021/08/22 05:03:43;;;;;;;17.75;8.63;;;435.80;2355.20;;;;;;5060048;28;20052;-79
2021/08/22 05:06:10;;;;;;;17.58;9.48;;;435.90;2355.20;;;;;;5060266;28;20179;-79
2021/08/22 05:08:36;;;;;;;13.20;6.45;;;435.90;2355.20;;;;;;5054560;28;20053;-81
2021/08/22 05:11:02;;;;;;;11.73;5.85;;;436.10;2355.20;;;;;;5053584;28;20057;-81
2021/08/22 05:13:29;;;;;;;10.82;5.95;;;460.80;2380.80;;;;;;5053825;28;20381;-80
2021/08/22 05:15:54;;;;;;;10.38;5.53;;;460.80;2380.80;;;;;;5053864;28;20057;-83
2021/08/22 05:18:21;;;;;;;11.55;5.72;;;460.80;2380.80;;;;;;5053472;28;20059;-81
2021/08/22 05:20:48;;;;;;;12.10;5.70;;;460.80;2380.80;;;;;;5053614;28;20465;-82
2021/08/22 05:23:14;;;;;;;11.25;5.28;;;436.10;2355.20;;;;;;5053639;28;20492;-81
2021/08/22 05:25:40;;;;;;;9.50;5.30;;;460.90;2380.80;;;;;;5053266;28;20055;-82
2021/08/22 05:28:06;;;;;;;11.90;5.55;;;436.10;2355.20;;;;;;5053363;28;20028;-79
2021/08/22 05:30:31;;;;;;;11.20;6.10;;;436.10;2355.20;;;;;;5053297;28;20068;-79
2021/08/22 05:32:57;;;;;;;9.02;5.68;;;436.00;2355.20;;;;;;5053324;28;20029;-80
2021/08/22 05:35:23;;;;;;;8.85;5.40;;;460.90;2380.80;;;;;;5053367;28;20094;-80
2021/08/22 05:37:49;;;;;;;9.77;5.00;;;461.10;2380.80;;;;;;5052948;28;20136;-81
2021/08/22 05:40:14;;;;;;;8.50;5.22;;;460.90;2380.80;;;;;;5052996;28;20021;-81
2021/08/22 05:42:40;;;;;;;7.55;5.30;;;461.10;2380.80;;;;;;5053046;28;20472;-85
2021/08/22 05:45:07;;;;;;;9.32;5.00;;;461.00;2380.80;;;;;;5052824;28;20127;-79
2021/08/22 05:47:32;;;;;;;11.85;6.15;;;461.20;2380.80;;;;;;5053129;28;20025;-80
2021/08/22 05:49:58;;;;;;;11.75;5.25;;;461.10;2380.80;;;;;;5052689;28;20423;-79
2021/08/22 05:52:24;;;;;;;9.75;5.57;;;461.30;2380.80;;;;;;5052924;28;20029;-79
2021/08/22 05:54:50;;;;;;;9.50;6.05;;;461.30;2380.80;;;;;;5053024;28;20376;-79
2021/08/22 05:57:15;;;;;;;10.40;6.53;;;461.40;2380.80;;;;;;5052921;28;20551;-79
2021/08/22 05:59:41;;;;;;;10.13;6.35;;;461.50;2380.80;;;;;;5052637;28;20032;-79
2021/08/22 06:02:07;;;;;;;13.93;6.35;;;461.60;2380.80;;;;;;5053688;28;20037;-80
2021/08/22 06:04:33;;;;;;;7.68;6.10;;;461.60;2380.80;;;;;;5052908;28;20032;-81
2021/08/22 06:06:59;;;;;;;8.80;5.15;;;461.60;2380.80;;;;;;5052447;28;20465;-80
2021/08/22 06:09:25;;;;;;;9.63;5.13;;;461.70;2380.80;;;;;;5054256;28;20048;-80
2021/08/22 06:11:51;;;;;;;13.38;5.57;;;486.50;2380.80;;;;;;5053967;28;20032;-79
2021/08/22 06:14:17;;;;;;;10.18;6.07;;;461.70;2380.80;;;;;;5052543;28;20387;-80
2021/08/22 06:16:43;;;;;;;9.43;5.53;;;486.50;2380.80;;;;;;5052477;28;20021;-80
2021/08/22 06:19:08;;;;;;;9.05;5.75;;;486.80;2380.80;;;;;;5052575;28;20514;-79
2021/08/22 06:21:34;;;;;;;8.50;6.13;;;486.90;2380.80;;;;;;5052233;28;20400;-80
2021/08/22 06:24:00;;;;;;;12.05;5.80;;;487.10;2380.80;;;;;;5052562;28;20029;-80
2021/08/22 06:26:27;;;;;;;6.85;4.93;;;487.10;2380.80;;;;;;5052642;28;20021;-81
2021/08/22 06:28:54;;;;;;;8.60;5.47;;;487.10;2380.80;;;;;;5052320;28;20423;-79
2021/08/22 06:31:20;;;;;;;9.77;5.45;;;487.30;2380.80;;;;;;5052689;28;20127;-81
2021/08/22 06:33:45;;;;;;;12.75;6.90;;;512.00;2380.80;;;;;;5052182;28;20459;-79
2021/08/22 06:36:12;;;;;;;7.72;5.70;;;512.10;2380.80;;;;;;5053724;28;20029;-80
2021/08/22 06:38:39;;;;;;;10.73;5.72;;;487.20;2380.80;;;;;;5052610;28;20029;-80
2021/08/22 06:41:05;;;;;;;7.80;4.88;;;512.40;2380.80;;;;;;5051512;28;20048;-80
2021/08/22 06:43:31;;;;;;;8.65;6.13;;;512.40;2380.80;;;;;;5052396;28;20079;-81
2021/08/22 06:45:57;;;;;;;10.23;5.53;;;512.50;2380.80;;;;;;5053815;28;20029;-80
2021/08/22 06:48:23;;;;;;;9.20;6.00;;;512.70;2380.80;;;;;;5052067;28;20029;-80
2021/08/22 06:50:49;;;;;;;8.80;4.93;;;512.90;2380.80;;;;;;5052394;28;20025;-80
2021/08/22 06:53:15;;;;;;;9.63;5.03;;;512.90;2380.80;;;;;;5052343;28;20032;-80
2021/08/22 06:55:41;;;;;;;6.85;4.45;;;537.70;2406.40;;;;;;5052050;28;20025;-81
2021/08/22 06:58:07;;;;;;;8.00;5.03;;;537.70;2406.40;;;;;;5052162;28;20029;-79
2021/08/22 07:00:34;;;;;;;13.52;5.40;;;537.90;2406.40;;;;;;5051906;28;20025;-81
2021/08/22 07:03:00;;;;;;;6.90;4.82;;;538.50;2406.40;;;;;;5053713;28;20392;-79
2021/08/22 07:05:25;;;;;;;13.20;5.57;;;538.30;2406.40;;;;;;5056371;28;20035;-79
2021/08/22 07:07:52;;;;;;;11.05;5.28;;;538.20;2406.40;;;;;;5056305;28;20115;-80
2021/08/22 07:10:18;;;;;;;10.75;6.45;;;538.40;2406.40;;;;;;5055729;28;20377;-81
2021/08/22 07:12:43;;;;;;;8.65;5.97;;;538.50;2406.40;;;;;;5056582;28;20025;-83
2021/08/22 07:18:22;;;;;;;;;;;563.60;2432.00;;;;;;5057264;28;20037;-84
2021/08/22 07:20:53;;;;;;;7.85;5.35;;;563.50;2406.40;;;;;;5056488;28;20311;-86
2021/08/22 07:23:22;;;;;;;7.25;5.00;;;563.50;2432.00;;;;;;5056731;28;20477;-88
2021/08/22 07:25:48;;;;;;;12.50;6.13;;;563.60;2406.40;;;;;;5057399;28;20108;-83
2021/08/22 07:31:25;;;;;;;9.52;5.80;;;563.80;2380.80;;;;;;5057890;28;20024;-87
2021/08/22 07:33:51;;;;;;;11.15;6.78;;;564.10;2355.20;;;;;;5056936;28;20364;-87
2021/08/22 07:36:20;;;;;;;14.60;6.22;;;564.10;2329.60;;;;;;5057064;28;20039;-85
2021/08/22 07:38:46;;;;;;;11.60;6.40;;;589.00;2329.60;;;;;;5056563;28;20032;-88
2021/08/22 07:41:12;;;;;;;7.30;4.68;;;589.30;2304.00;;;;;;5059613;28;20124;-85
2021/08/22 07:43:38;;;;;;;9.40;5.90;;;589.40;2252.80;;;;;;5066123;28;20040;-85
2021/08/22 07:46:04;;;;;;;10.13;6.57;;;589.50;2252.80;;;;;;5058379;28;20029;-86
2021/08/22 07:48:30;;;;;;;10.70;5.18;;;589.60;2227.20;;;;;;5060707;28;20028;-84
2021/08/22 07:50:55;;;;;;;9.45;5.72;;;589.60;2201.60;;;;;;5061576;28;20107;-87
2021/08/22 07:53:21;;;;;;;9.70;6.75;;;589.60;2227.20;;;;;;5063528;28;20360;-84
2021/08/22 07:55:47;;;;;;;7.60;6.07;;;589.70;2227.20;;;;;;5065341;28;20033;-84
2021/08/22 07:58:13;;;;;;;9.10;5.65;;;614.50;2201.60;;;;;;5066307;28;20387;-85
2021/08/22 08:00:39;;;;;;;9.82;5.15;;;614.80;2176.00;;;;;;5067592;28;20380;-85
2021/08/22 08:03:05;;;;;;;10.20;6.20;;;614.80;2124.80;;;;;;5067543;28;20482;-84
2021/08/22 08:05:31;;;;;;;13.35;7.15;;;614.80;2150.40;;;;;;5067367;28;20025;-85
2021/08/22 08:07:57;;;;;;;15.88;6.68;;;615.00;2150.40;;;;;;5059104;28;20098;-83
2021/08/22 08:10:24;;;;;;;9.85;5.40;;;615.30;2124.80;;;;;;5064458;28;20464;-84
2021/08/22 08:12:50;;;;;;;6.97;5.25;;;615.30;2099.20;;;;;;5069238;28;20102;-83
2021/08/22 08:15:16;;;;;;;12.40;5.18;;;640.00;2099.20;;;;;;5055803;28;20032;-84
2021/08/22 08:17:42;;;;;;;7.47;4.80;;;615.30;2099.20;;;;;;5066078;28;20398;-84
2021/08/22 08:20:09;;;;;;;10.05;6.20;;;640.10;2099.20;;;;;;5059407;28;20071;-84
2021/08/22 08:22:35;;;;;;;7.78;5.10;;;640.10;2099.20;;;;;;5064342;28;20033;-86
2021/08/22 08:25:00;;;;;;;8.45;5.40;;;640.20;2073.60;;;;;;5064187;28;20019;-84
2021/08/22 08:27:26;;;;;;;13.93;6.35;;;640.40;2073.60;;;;;;5064998;28;20043;-84
2021/08/22 08:29:52;;;;;;;6.78;4.93;;;640.50;2073.60;;;;;;5062958;28;20021;-83
2021/08/22 08:32:18;;;;;;;14.65;6.53;;;640.50;2048.00;;;;;;5068566;28;20028;-81
2021/08/22 08:34:44;;;;;;;17.55;6.45;;;640.90;2048.00;;;;;;5060522;28;20056;-82
2021/08/22 08:37:10;;;;;;;8.40;5.43;;;665.70;2048.00;;;;;;5063248;28;20497;-84
2021/08/22 08:39:36;;;;;;;11.32;5.40;;;665.90;2022.40;;;;;;5062971;28;20036;-84
2021/08/22 08:42:24;;;;;;;10.38;6.32;;;666.00;1996.80;;;;;;5065405;28;20099;-83
2021/08/22 08:44:54;;;;;;;9.48;5.93;;;666.30;1996.80;;;;;;5038643;28;20030;-85
2021/08/22 08:47:23;;;;;;;11.88;5.72;;;666.50;1971.20;;;;;;5068933;28;20043;-85
2021/08/22 08:49:49;;;;;;;7.38;5.22;;;691.20;1945.60;;;;;;5057528;28;20035;-84
2021/08/22 08:52:27;;;;;;;9.38;4.93;;;691.30;1945.60;;;;;;5054528;28;20124;-83
2021/08/22 08:55:01;;;;;;;13.95;5.50;;;691.30;1920.00;;;;;;5036116;28;20030;-85
2021/08/22 08:57:28;;;;;;;8.63;5.68;;;691.60;1945.60;;;;;;5054510;28;20078;-84
2021/08/22 08:59:54;;;;;;;7.63;4.80;;;691.70;1920.00;;;;;;5054386;28;20074;-85
2021/08/22 09:02:20;;;;;;;9.15;4.90;;;691.80;1894.40;;;;;;5054499;28;20036;-86
2021/08/22 09:04:58;;;;;;;6.47;4.35;;;692.00;1894.40;;;;;;5054253;28;20465;-84
2021/08/22 09:08:03;;;;;;;7.50;4.20;;;691.80;1868.80;;;;;;5049537;28;20078;-86
2021/08/22 09:11:00;;;;;;;9.52;6.20;;;691.80;1894.40;;;;;;5052995;28;20461;-84
2021/08/22 09:13:47;;;;;;;7.68;4.82;;;692.10;1868.80;;;;;;5052322;28;20464;-85
2021/08/22 09:16:31;;;;;;;8.63;4.97;;;692.10;1817.60;;;;;;5052766;28;20025;-83
2021/08/22 09:19:33;;;;;;;7.82;5.60;;;717.00;1843.20;;;;;;5050607;28;20013;-86
2021/08/22 09:22:20;;;;;;;7.85;4.85;;;717.20;1843.20;;;;;;5053459;28;20025;-85
2021/08/22 09:24:58;;;;;;;10.13;6.60;;;717.30;1792.00;;;;;;5048743;28;20473;-85
2021/08/22 09:27:42;;;;;;;8.23;4.47;;;717.50;1792.00;;;;;;5046042;28;20029;-85
2021/08/22 09:30:29;;;;;;;7.60;4.55;;;717.70;1766.40;;;;;;5054734;28;20475;-86
2021/08/22 09:33:32;;;;;;;8.40;4.55;;;717.50;1740.80;;;;;;5048503;28;20119;-83
2021/08/22 09:36:23;;;;;;;7.30;3.80;;;717.70;1740.80;;;;;;5053845;28;20029;-83
2021/08/22 09:39:26;;;;;;;7.82;5.10;;;717.50;1715.20;;;;;;5054971;28;20017;-85
2021/08/22 09:42:07;;;;;;;7.57;4.80;;;717.60;1715.20;;;;;;5053693;28;20073;-83
2021/08/22 09:45:10;;;;;;;12.80;4.43;;;742.40;1740.80;;;;;;5053482;28;20082;-82
2021/08/22 09:47:57;;;;;;;7.25;4.32;;;742.40;1715.20;;;;;;5053417;28;20025;-84
2021/08/22 09:50:31;;;;;;;6.38;4.05;;;742.90;1715.20;;;;;;5053121;28;20108;-82
2021/08/22 09:53:35;;;;;;;7.53;3.47;;;743.10;1664.00;;;;;;5054355;28;20029;-86
2021/08/22 09:56:38;;;;;;;7.78;4.38;;;743.00;1664.00;;;;;;5053396;28;20040;-83
2021/08/22 09:59:22;;;;;;;5.95;3.58;;;743.20;1664.00;;;;;;5047105;28;20024;-84
2021/08/22 10:02:13;;;;;;;9.02;4.35;;;768.00;1638.40;;;;;;5053350;28;20098;-82
2021/08/22 10:04:50;;;;;;;6.30;3.83;;;768.30;1638.40;;;;;;5053572;28;20032;-83
2021/08/22 10:07:28;;;;;;;6.47;4.30;;;768.60;1612.80;;;;;;5053021;28;20025;-83
2021/08/22 10:10:02;;;;;;;6.63;3.83;;;793.60;1638.40;;;;;;5052992;28;20092;-83
2021/08/22 10:12:28;;;;;;;7.88;3.20;;;793.80;1612.80;;;;;;5053184;28;20067;-83
2021/08/22 10:14:54;;;;;;;6.18;3.65;;;768.70;1587.20;;;;;;5054087;28;20021;-83
2021/08/22 10:17:25;;;;;;;6.68;3.40;;;793.60;1612.80;;;;;;5053670;28;20040;-85
2021/08/22 10:19:52;;;;;;;5.78;3.13;;;793.90;1561.60;;;;;;5053418;28;20033;-84
2021/08/22 10:22:21;;;;;;;7.95;4.10;;;794.20;1561.60;;;;;;5052986;28;20044;-84
2021/08/22 10:24:54;;;;;;;5.05;3.22;;;819.30;1561.60;;;;;;5047598;28;20039;-85
2021/08/22 10:27:33;;;;;;;7.90;3.58;;;819.30;1536.00;;;;;;5052699;28;20036;-85
2021/08/22 10:30:02;;;;;;;6.20;3.10;;;819.50;1510.40;;;;;;5052801;28;20017;-84
2021/08/22 10:32:29;;;;;;;7.15;4.13;;;819.40;1510.40;;;;;;5052924;28;20036;-84
2021/08/22 10:35:13;;;;;;;6.43;3.53;;;819.20;1510.40;;;;;;5052845;28;20056;-84
2021/08/22 10:37:43;;;;;;;7.03;4.25;;;820.00;1510.40;;;;;;5052831;28;20524;-84
2021/08/22 10:40:24;;;;;;;7.90;3.28;;;844.90;1510.40;;;;;;5052438;28;20051;-84
2021/08/22 10:43:05;;;;;;;6.45;3.20;;;844.90;1459.20;;;;;;5052974;28;20065;-84
2021/08/22 10:45:40;;;;;;;5.20;3.40;;;819.90;1459.20;;;;;;5052538;28;20063;-83
2021/08/22 10:48:08;;;;;;;5.10;2.97;;;819.80;1459.20;;;;;;5053748;28;20029;-84
2021/08/22 10:53:36;;;;;;;5.50;2.83;;;845.00;1459.20;;;;;;5054012;28;20064;-83
2021/08/22 10:56:20;;;;;;;4.32;2.67;;;845.50;1382.40;;;;;;5054656;28;20372;-83
2021/08/22 10:58:56;;;;;;;6.53;3.28;;;845.40;1408.00;;;;;;5052849;28;20021;-83
2021/08/22 11:01:22;;;;;;;5.40;2.97;;;845.70;1408.00;;;;;;5052585;28;20033;-83
2021/08/22 11:04:04;;;;;;;5.70;3.17;;;845.40;1433.60;;;;;;5052536;28;20025;-82
2021/08/22 11:06:30;;;;;;;7.35;3.63;;;845.00;1433.60;;;;;;5052664;28;20056;-83
2021/08/22 11:08:56;;;;;;;7.88;3.05;;;845.10;1408.00;;;;;;5052665;28;20465;-84
2021/08/22 11:11:22;;;;;;;6.63;3.13;;;820.10;1356.80;;;;;;5052662;28;20025;-85
2021/08/22 11:13:55;;;;;;;8.55;5.40;;;845.00;1382.40;;;;;;5052588;28;20025;-83
2021/08/22 11:16:21;;;;;;;8.05;5.20;;;845.30;1382.40;;;;;;5052994;28;20119;-83
2021/08/22 11:18:47;;;;;;;5.38;3.17;;;845.70;1356.80;;;;;;5052720;28;20036;-85
2021/08/22 11:21:13;;;;;;;6.93;3.10;;;845.70;1331.20;;;;;;5053051;28;20477;-84
2021/08/22 11:23:39;;;;;;;5.72;4.13;;;845.70;1356.80;;;;;;5053061;28;20036;-84
2021/08/22 11:26:07;;;;;;;7.85;3.58;;;870.50;1331.20;;;;;;5052745;28;20486;-86
2021/08/22 11:28:34;;;;;;;5.43;3.13;;;870.40;1331.20;;;;;;5052783;28;20021;-83
2021/08/22 11:31:09;;;;;;;6.13;3.78;;;870.70;1331.20;;;;;;5052351;28;20389;-81
2021/08/22 11:33:35;;;;;;;5.85;3.47;;;871.00;1356.80;;;;;;5052524;28;20118;-86
2021/08/22 11:36:03;;;;;;;7.15;3.25;;;896.10;1356.80;;;;;;5052318;28;20025;-84
2021/08/22 11:38:29;;;;;;;5.60;2.85;;;871.20;1305.60;;;;;;5052781;28;20029;-85
2021/08/22 11:41:04;;;;;;;7.32;3.92;;;870.70;1305.60;;;;;;5052258;28;20045;-84
2021/08/22 11:43:30;;;;;;;6.10;2.97;;;870.40;1331.20;;;;;;5052604;28;20029;-83
2021/08/22 11:45:56;;;;;;;7.05;3.53;;;870.90;1331.20;;;;;;5053405;28;20048;-84
2021/08/22 11:48:24;;;;;;;4.03;3.03;;;871.30;1331.20;;;;;;5052818;28;20111;-83
2021/08/22 11:50:51;;;;;;;5.22;2.72;;;896.10;1280.00;;;;;;5055649;28;20118;-82
2021/08/22 11:53:18;;;;;;;7.35;4.47;;;896.10;1254.40;;;;;;5055440;28;20029;-82
2021/08/22 11:55:45;;;;;;;5.55;3.47;;;896.20;1280.00;;;;;;5056786;28;20055;-82
2021/08/22 11:58:14;;;;;;;7.05;4.10;;;871.10;1280.00;;;;;;5055948;28;20078;-83
2021/08/22 12:00:42;;;;;;;5.50;3.38;;;896.20;1228.80;;;;;;5055561;28;20523;-84
2021/08/22 12:03:13;;;;;;;3.75;2.40;;;896.20;1228.80;;;;;;5056510;28;20456;-82
2021/08/22 12:06:01;;;;;;;4.35;2.42;;;896.00;1203.20;;;;;;5056627;28;20029;-81
2021/08/22 12:08:30;;;;;;;5.00;2.83;;;896.00;1228.80;;;;;;5055653;28;20021;-82
2021/08/22 12:11:17;;;;;;;5.28;2.38;;;896.40;1203.20;;;;;;5055596;28;20174;-82
2021/08/22 12:13:45;;;;;;;5.20;2.80;;;896.10;1203.20;;;;;;5054921;28;20025;-81
2021/08/22 12:16:24;;;;;;;3.70;2.33;;;896.40;1203.20;;;;;;5055421;28;20025;-80
2021/08/22 12:18:50;;;;;;;4.63;2.60;;;896.70;1177.60;;;;;;5055397;28;20119;-80
2021/08/22 12:21:18;;;;;;;5.35;2.55;;;921.60;1228.80;;;;;;5054564;28;20067;-82
2021/08/22 12:23:46;;;;;;;5.20;2.50;;;921.60;1228.80;;;;;;5055488;28;20076;-81
2021/08/22 12:26:30;;;;;;;6.95;3.17;;;921.70;1177.60;;;;;;5056482;28;20080;-80
2021/08/22 12:29:07;;;;;;;3.65;2.42;;;896.80;1177.60;;;;;;5054751;28;20368;-81
2021/08/22 12:31:35;;;;;;;4.15;2.67;;;896.40;1152.00;;;;;;5056093;28;20037;-80
2021/08/22 12:34:05;;;;;;;5.78;3.72;;;896.20;1177.60;;;;;;5054558;28;20033;-81
2021/08/22 12:36:36;;;;;;;4.93;2.85;;;896.90;1152.00;;;;;;5054707;28;20025;-80